Smith Valley, Nevada Weather observations

Data are for 10 minute period ending at time listed.
 Day   Time   Solar   Ave.   Ave.  Ave.  Vector  Max.   Baro.   Total    
  of    of     Rad.   Air    Rel.  Wind   Wind   Wind  Press.  Precip.   
Year   Day            Temp.  Hum.  Speed  Dir.   Gust                    
2015   (PST)  Kw/m2    F      %     mph   deg.    mph    mb.     in.     
-------------------------------------------------------------------------
  64    6:50   0.05   15.5    84    2.7   115     3.7   863.2    0.00 
  64    7:00   0.07   17.0    82    2.6   115     4.3   863.3    0.00 
  64    7:10   0.10   19.3    79    1.7   102     3.4   863.4    0.00 
  64    7:20   0.13   21.8    77    0.7   109     2.9   863.5    0.00 
  64    7:30   0.16   24.9    72    0.4   344     1.5   863.8    0.00 
  64    7:40   0.20   25.6    72    2.3   292     3.4   864.0    0.00 
  64    7:50   0.23   26.0    73    3.4   296     4.0   864.1    0.00 
  64    8:00   0.26   28.2    69    2.4   285     3.7   864.2    0.00 
  64    8:10   0.30   31.0    62    0.8   280     2.6   864.3    0.00 
  64    8:20   0.33   32.6    58    0.3   288     1.2   864.3    0.00 
  64    8:30   0.37   33.9    56    0.4   301     1.6   864.4    0.00 
  64    8:40   0.40   34.8    53    0.8   269     2.7   864.5    0.00 
  64    8:50   0.43   35.9    51    0.7   288     2.6   864.6    0.00 
  64    9:00   0.47   36.5    49    0.5     5     2.3   864.6    0.00 
  64    9:10   0.50   37.7    47    1.0   338     4.0   864.6    0.00 
  64    9:20   0.53   38.1    46    1.1   308     3.5   864.6    0.00 
  64    9:30   0.56   39.3    43    1.8   287     4.8   864.5    0.00 
  64    9:40   0.59   38.9    42    1.8   309     4.1   864.4    0.00 
  64    9:50   0.61   40.0    39    1.4   337     3.8   864.3    0.00 
  64   10:00   0.64   41.7    34    0.8   214     3.2   864.3    0.00 
  64   10:10   0.66   42.9    32    0.8   317     3.2   864.1    0.00 
  64   10:20   0.69   44.1    31    2.2   352     5.5   864.1    0.00 
  64   10:30   0.70   43.4    33    2.4   321     5.0   864.1    0.00 
  64   10:40   0.72   44.3    31    3.0   356     6.6   864.0    0.00 
  64   10:50   0.74   44.9    31    2.9   347     6.0   863.9    0.00 
  64   11:00   0.76   46.0    30    2.5   282     6.2   863.8    0.00 
  64   11:10   0.77   46.5    29    3.0   315     9.3   863.7    0.00 
  64   11:20   0.78   47.1    28    3.0   312     6.1   863.6    0.00 
  64   11:30   0.79   48.2    26    2.6   309     5.5   863.6    0.00 
  64   11:40   0.80   49.2    25    1.9   273     8.2   863.4    0.00 
  64   11:50   0.81   50.5    23    2.4    22     4.4   863.3    0.00 
  64   12:00   0.81   51.2    23    1.6   354     5.2   863.3    0.00 
  64   12:10   0.81   50.7    22    3.4   355     6.9   863.1    0.00 
  64   12:20   0.81   51.5    22    2.4   320     7.1   863.0    0.00 
  64   12:30   0.81   52.3    21    2.3    75     5.8   862.9    0.00 
  64   12:40   0.81   52.3    20    3.5    18     8.3   862.7    0.00 
  64   12:50   0.80   53.0    20    3.3    32     7.4   862.6    0.00 
  64   13:00   0.80   53.9    18    2.5    23     7.2   862.5    0.00 
  64   13:10   0.79   53.7    18    3.8   355     7.3   862.4    0.00 
  64   13:20   0.78   55.2    17    1.8   302     5.8   862.2    0.00 
  64   13:30   0.76   55.0    17    2.5   294     4.7   862.2    0.00 
  64   13:40   0.75   55.1    18    2.3   245     6.6   862.1    0.00 
  64   13:50   0.73   56.3    17    3.8   329     7.9   862.1    0.00 
  64   14:00   0.71   56.1    15    2.4    48     5.1   862.0    0.00 
  64   14:10   0.69   56.9    16    2.5    96     6.1   862.0    0.00 
  64   14:20   0.67   58.1    16    1.5   345     6.7   862.0    0.00 
  64   14:30   0.65   56.9    18    5.2    10     9.3   862.0    0.00 
  64   14:40   0.62   57.3    18    3.6    10     7.0   862.0    0.00 
  64   14:50   0.60   56.6    18    4.6   336    10.3   861.9    0.00 
  64   15:00   0.57   56.6    17    3.8   347     7.2   861.9    0.00 
  64   15:10   0.54   57.2    16    4.1   337     8.6   861.8    0.00 
  64   15:20   0.51   57.1    15    4.3     9     8.1   861.8    0.00 
  64   15:30   0.48   57.3    15    3.6    38     7.5   861.8    0.00 
  64   15:40   0.45   57.4    15    4.2   348     9.0   861.8    0.00 
  64   15:50   0.42   57.1    15    3.9   345     7.2   861.8    0.00 
  64   16:00   0.38   57.3    15    3.6     1     9.1   861.7    0.00 
  64   16:10   0.35   57.0    16    5.0     2     9.0   861.6    0.00 
  64   16:20   0.31   57.2    16    5.2   343     9.3   861.6    0.00 
  64   16:30   0.28   56.9    16    4.1     4     8.0   861.6    0.00 
  64   16:40   0.24   56.6    15    5.8     1     8.4   861.5    0.00 
  64   16:50   0.21   56.4    16    6.6   357     8.9   861.6    0.00 
  64   17:00   0.17   56.3    16    5.3   347     7.4   861.6    0.00 
  64   17:10   0.14   56.0    16    6.0   355     9.4   861.6    0.00 
  64   17:20   0.10   55.5    16    5.6     9     7.6   861.6    0.00 
  64   17:30   0.02   53.7    19    5.0   322     7.2   861.7    0.00 
  64   17:40   0.02   50.5    25    4.5   284     6.3   861.7    0.00 
  64   17:50   0.01   48.0    30    4.9   278     7.2   861.8    0.00 
  64   18:00   0.01   46.2    31    5.1   280     7.5   862.0    0.00 
  64   18:10   0.00   45.0    33    4.6   280     6.1   862.2    0.00 
  64   18:20   0.00   44.1    34    4.2   283     7.7   862.4    0.00 
  64   18:30   0.00   43.6    35    4.6   281     6.4   862.5    0.00 
  64   18:40   0.00   43.1    35    4.9   280     6.6   862.7    0.00 
  64   18:50   0.00   42.2    36    2.0   252     5.3   862.9    0.00 
  64   19:00   0.00   41.7    37    1.6   215     2.5   862.9    0.00 
  64   19:10   0.00   41.0    38    0.7   235     1.8   863.0    0.00 
  64   19:20   0.00   41.3    37    2.7   331     5.3   863.1    0.00 
  64   19:30   0.00   43.1    32    3.9   318     5.6   863.2    0.00 
  64   19:40   0.00   44.3    30    3.4   307     6.2   863.3    0.00 
  64   19:50   0.00   43.2    32    1.9   325     2.9   863.4    0.00 
  64   20:00   0.00   43.3    31    2.4   310     4.0   863.5    0.00 
  64   20:10   0.00   43.8    31    1.6   272     3.9   863.5    0.00 
  64   20:20   0.00   41.2    35    2.7   267     4.3   863.5    0.00 
  64   20:30   0.00   39.5    38    4.0   276     4.7   863.6    0.00 
  64   20:40   0.00   41.3    35    3.9   288     4.5   863.6    0.00 
  64   20:50   0.00   42.9    32    3.7   290     5.1   863.7    0.00 
  64   21:00   0.00   40.4    37    3.1   186     5.7   863.7    0.00 
  64   21:10   0.00   35.0    48    4.4   174     6.4   863.8    0.00 
  64   21:20   0.00   33.2    54    2.0   117     5.2   864.0    0.00 
  64   21:30   0.00   33.5    54    2.2   149     3.4   864.1    0.00 
  64   21:40   0.00   33.5    54    2.2   147     2.7   864.1    0.00 
  64   21:50   0.00   33.6    54    1.9   119     3.3   864.2    0.00 
  64   22:00   0.00   30.6    59    1.8    93     3.8   864.2    0.00 
  64   22:10   0.00   29.7    61    3.7   106     4.7   864.2    0.00 
  64   22:20   0.00   29.4    62    3.2   116     4.8   864.2    0.00 
  64   22:30   0.00   30.3    60    2.2   106     3.0   864.2    0.00 
  64   22:40   0.00   31.6    58    3.5   112     4.3   864.1    0.00 
  64   22:50   0.00   31.2    58    2.2   100     3.7   864.1    0.00 
  64   23:00   0.00   30.1    60    3.2    99     4.6   864.1    0.00 
  64   23:10   0.00   28.5    63    2.4    78     3.5   864.2    0.00 
  64   23:20   0.00   27.9    65    2.8   103     4.2   864.2    0.00 
  64   23:30   0.00   29.4    62    2.9   102     3.7   864.1    0.00 
  64   23:40   0.00   29.7    60    1.4   149     2.3   864.0    0.00 
  64   23:50   0.00   26.9    63    1.4   206     2.4   864.0    0.00 
  65    0:00   0.00   25.5    68    1.6   229     2.3   863.9    0.00 
  65    0:10   0.00   24.7    69    1.0   270     1.5   863.9    0.00 
  65    0:20   0.00   24.7    71    0.2   272     0.9   863.9    0.00 
  65    0:30   0.00   25.1    70    0.0     0     0.0   863.9    0.00 
  65    0:40   0.00   24.7    70    0.7   273     1.6   863.8    0.00 
  65    0:50   0.00   23.7    71    0.1   272     1.1   863.9    0.00 
  65    1:00   0.00   24.5    73    0.4   273     1.1   863.8    0.00 
  65    1:10   0.00   24.5    72    0.0     0     0.0   863.9    0.00 
  65    1:20   0.00   25.0    71    1.2   197     1.8   863.9    0.00 
  65    1:30   0.00   21.7    72    2.6   208     4.3   863.9    0.00 
  65    1:40   0.00   21.0    77    1.9   178     2.8   863.8    0.00 
  65    1:50   0.00   21.8    78    1.5   145     2.3   863.8    0.00 
  65    2:00   0.00   22.3    77    0.4   144     1.2   863.7    0.00 
  65    2:10   0.00   21.6    78    1.4   157     2.7   863.7    0.00 
  65    2:20   0.00   22.1    78    1.8   128     2.6   863.7    0.00 
  65    2:30   0.00   23.1    75    1.3   125     1.8   863.6    0.00 
  65    2:40   0.00   21.8    75    1.0   168     2.2   863.6    0.00 
  65    2:50   0.00   21.0    78    1.8   122     2.3   863.6    0.00 
  65    3:00   0.00   20.9    77    0.3   180     1.6   863.5    0.00 
  65    3:10   0.00   19.1    78    2.1   196     3.1   863.4    0.00 
  65    3:20   0.00   18.4    80    2.0   176     3.5   863.4    0.00 
  65    3:30   0.00   19.2    80    2.1   179     3.6   863.5    0.00 
  65    3:40   0.00   20.5    81    2.5   180     3.2   863.4    0.00 
  65    3:50   0.00   19.9    79    2.3   191     3.4   863.4    0.00 
  65    4:00   0.00   19.1    81    2.3   190     3.2   863.4    0.00 
  65    4:10   0.00   20.1    82    1.1   161     2.0   863.5    0.00 
  65    4:20   0.00   23.6    78    2.2   122     2.8   863.5    0.00 
  65    4:30   0.00   24.1    69    0.8    99     3.5   863.5    0.00 
  65    4:40   0.00   21.0    77    1.9    91     3.1   863.5    0.00 
  65    4:50   0.00   21.4    75    2.0   129     3.1   863.6    0.00 
  65    5:00   0.00   20.4    76    0.7   121     1.8   863.6    0.00 
  65    5:10   0.00   20.0    76    0.3   113     1.4   863.7    0.00 
  65    5:20   0.00   19.5    77    1.5   236     2.9   863.8    0.00 
  65    5:30   0.00   19.4    79    2.4   238     3.1   863.8    0.00 
  65    5:40   0.00   20.0    79    0.8   255     2.6   863.9    0.00 
  65    5:50   0.00   19.5    80    0.5   249     1.2   864.0    0.00 
  65    6:00   0.00   19.8    79    1.4   124     2.0   864.1    0.00 
  65    6:10   0.00   19.0    78    2.1   154     2.8   864.1    0.00 
  65    6:20   0.00   20.5    78    2.4   162     3.2   864.1    0.00 
  65    6:30   0.01   19.4    76    2.4   175     3.5   864.1    0.00 
  65    6:40   0.02   17.8    78    0.8   184     2.6   864.1    0.00 

Return to Smith Valley graphs page.


Western Regional Climate Center,wrcc@dri.edu